createdAt,value
2019-03-05T00:01:09.404Z,63.75
2019-03-05T00:03:46.910Z,69.30
2019-03-05T00:06:23.953Z,68.45
2019-03-05T00:09:00.634Z,72.78
2019-03-05T00:11:38.915Z,80.28
2019-03-05T00:14:15.654Z,78.35
2019-03-05T00:16:52.642Z,80.47
2019-03-05T00:19:29.671Z,70.78
2019-03-05T00:22:07.939Z,74.20
2019-03-05T00:25:09.547Z,73.80
2019-03-05T00:28:16.226Z,71.95
2019-03-05T00:31:02.040Z,68.37
2019-03-05T00:34:27.009Z,54.70
2019-03-05T00:37:11.160Z,52.80
2019-03-05T00:40:25.824Z,59.88
2019-03-05T00:43:31.499Z,50.65
2019-03-05T00:46:47.992Z,57.48
2019-03-05T00:50:02.614Z,50.48
2019-03-05T00:53:04.179Z,48.20
2019-03-05T00:56:14.362Z,51.23
2019-03-05T00:59:14.237Z,48.38
2019-03-05T01:02:22.138Z,47.85
2019-03-05T01:05:59.546Z,45.15
2019-03-05T01:08:36.717Z,48.30
2019-03-05T01:11:13.497Z,49.08
2019-03-05T01:13:50.417Z,50.00
2019-03-05T01:16:30.396Z,50.35
2019-03-05T01:19:07.639Z,49.80
2019-03-05T01:21:44.600Z,47.83
2019-03-05T01:24:22.416Z,45.80
2019-03-05T01:26:58.662Z,42.78
2019-03-05T01:29:35.725Z,41.77
2019-03-05T01:32:29.123Z,49.20
2019-03-05T01:35:13.766Z,44.27
2019-03-05T01:37:50.634Z,44.93
2019-03-05T01:40:54.911Z,43.55
2019-03-05T01:43:31.674Z,38.20
2019-03-05T01:46:08.837Z,35.58
2019-03-05T01:48:44.973Z,37.48
2019-03-05T01:51:21.341Z,46.33
2019-03-05T01:53:58.083Z,36.70
2019-03-05T01:56:36.481Z,36.38
2019-03-05T01:59:13.469Z,46.35
2019-03-05T02:01:50.396Z,32.30
2019-03-05T02:04:28.113Z,36.28
2019-03-05T02:07:04.942Z,35.52
2019-03-05T02:09:41.910Z,35.30
2019-03-05T02:12:18.893Z,35.05
2019-03-05T02:14:56.903Z,37.08
2019-03-05T02:17:33.716Z,31.55
2019-03-05T02:20:13.691Z,46.83
2019-03-05T02:23:03.327Z,35.83
2019-03-05T02:26:02.672Z,77.15
2019-03-05T02:29:04.243Z,33.33
2019-03-05T02:32:05.818Z,33.53
2019-03-05T02:35:05.577Z,34.30
2019-03-05T02:38:13.142Z,33.08
2019-03-05T02:41:31.496Z,31.40
2019-03-05T02:45:01.948Z,34.43
2019-03-05T02:48:11.363Z,34.50
2019-03-05T02:51:28.330Z,39.25
2019-03-05T02:54:56.374Z,32.53
2019-03-05T02:57:29.028Z,30.30
2019-03-05T03:00:06.411Z,27.48
2019-03-05T03:03:07.660Z,37.45
2019-03-05T03:06:05.325Z,25.05
2019-03-05T03:08:42.237Z,31.65
2019-03-05T03:11:19.470Z,28.05
2019-03-05T03:13:56.301Z,38.73
2019-03-05T03:16:33.844Z,28.15
2019-03-05T03:19:10.559Z,26.60
2019-03-05T03:21:47.454Z,29.95
2019-03-05T03:24:24.121Z,29.77
2019-03-05T03:27:00.965Z,30.45
2019-03-05T03:29:37.869Z,27.93
2019-03-05T03:32:15.684Z,27.20
2019-03-05T03:34:52.645Z,38.80
2019-03-05T03:37:29.523Z,28.23
2019-03-05T03:40:07.417Z,28.65
2019-03-05T03:42:45.846Z,38.50
2019-03-05T03:45:25.192Z,80.07
2019-03-05T03:48:01.678Z,32.40
2019-03-05T03:50:38.559Z,235.80
2019-03-05T03:53:14.729Z,46.28
2019-03-05T03:55:51.325Z,35.92
2019-03-05T03:58:28.995Z,41.05
2019-03-05T04:01:07.176Z,32.23
2019-03-05T04:03:44.093Z,32.20
2019-03-05T04:06:21.384Z,26.40
2019-03-05T04:08:58.224Z,31.00
2019-03-05T04:11:35.123Z,33.42
2019-03-05T04:14:12.072Z,32.00
2019-03-05T04:16:49.164Z,30.60
2019-03-05T04:19:30.341Z,33.53
2019-03-05T04:22:06.712Z,41.37
2019-03-05T04:24:43.756Z,32.28
2019-03-05T04:27:20.379Z,34.53
2019-03-05T04:29:57.037Z,33.98
2019-03-05T04:32:33.136Z,32.23
2019-03-05T04:35:11.082Z,29.50
2019-03-05T04:37:47.955Z,30.80
2019-03-05T04:40:24.647Z,30.55
2019-03-05T04:43:04.877Z,31.25
2019-03-05T04:46:02.364Z,32.73
2019-03-05T04:48:40.359Z,30.65
2019-03-05T04:51:33.453Z,34.08
2019-03-05T04:54:10.513Z,33.78
2019-03-05T04:56:47.452Z,32.28
2019-03-05T04:59:24.887Z,31.20
2019-03-05T05:02:01.823Z,31.55
2019-03-05T05:04:39.243Z,35.35
2019-03-05T05:07:16.056Z,31.70
2019-03-05T05:09:53.325Z,33.95
2019-03-05T05:12:32.113Z,28.70
2019-03-05T05:15:11.514Z,29.30
2019-03-05T05:17:48.714Z,30.88
2019-03-05T05:20:25.560Z,28.27
2019-03-05T05:23:02.718Z,33.50
2019-03-05T05:25:38.910Z,35.92
2019-03-05T05:28:32.988Z,49.13
2019-03-05T05:31:09.458Z,31.52
2019-03-05T05:33:46.357Z,29.48
2019-03-05T05:36:23.066Z,34.53
2019-03-05T05:38:59.583Z,31.02
2019-03-05T05:41:38.109Z,29.82
2019-03-05T05:44:14.726Z,30.43
2019-03-05T05:46:51.662Z,33.45
2019-03-05T05:49:28.328Z,29.65
2019-03-05T05:52:04.930Z,33.88
2019-03-05T05:54:41.977Z,30.77
2019-03-05T05:57:18.714Z,28.98
2019-03-05T05:59:55.343Z,30.70
2019-03-05T06:02:34.286Z,31.97
2019-03-05T06:05:11.360Z,32.05
2019-03-05T06:07:48.076Z,30.82
2019-03-05T06:10:26.447Z,32.73
2019-03-05T06:13:04.762Z,30.92
2019-03-05T06:15:41.670Z,30.45
2019-03-05T06:18:18.371Z,30.55
2019-03-05T06:20:54.977Z,35.25
2019-03-05T06:23:32.220Z,38.15
2019-03-05T06:26:10.239Z,34.40
2019-03-05T06:29:04.030Z,37.03
2019-03-05T06:31:42.040Z,33.08
2019-03-05T06:34:19.497Z,31.42
2019-03-05T06:37:01.449Z,35.68
2019-03-05T06:39:38.504Z,37.00
2019-03-05T06:42:15.371Z,34.70
2019-03-05T06:44:52.175Z,36.10
2019-03-05T06:47:28.848Z,33.05
2019-03-05T06:50:06.159Z,36.20
2019-03-05T06:52:44.086Z,33.85
2019-03-05T06:55:21.175Z,32.73
2019-03-05T06:57:57.852Z,32.95
2019-03-05T07:00:39.060Z,39.42
2019-03-05T07:03:16.775Z,36.17
2019-03-05T07:06:26.849Z,35.90
2019-03-05T07:09:24.315Z,35.33
2019-03-05T07:12:20.452Z,36.08
2019-03-05T07:15:25.175Z,35.58
2019-03-05T07:21:20.055Z,37.00
2019-03-05T07:24:37.135Z,36.95
2019-03-05T07:27:15.350Z,40.15
2019-03-05T07:29:51.910Z,34.50
2019-03-05T07:32:29.465Z,34.50
2019-03-05T07:35:06.792Z,39.25
2019-03-05T07:37:43.760Z,36.35
2019-03-05T07:40:20.684Z,34.80
2019-03-05T07:42:57.201Z,38.38
2019-03-05T07:45:34.555Z,31.80
2019-03-05T07:48:11.655Z,37.58
2019-03-05T07:50:48.742Z,36.53
2019-03-05T07:53:27.137Z,33.33
2019-03-05T07:56:04.528Z,34.65
2019-03-05T07:58:42.592Z,31.52
2019-03-05T08:01:22.487Z,31.75
2019-03-05T08:04:00.078Z,35.30
2019-03-05T08:06:37.036Z,32.08
2019-03-05T08:09:37.454Z,35.75
2019-03-05T08:12:28.098Z,33.85
2019-03-05T08:15:15.396Z,38.38
2019-03-05T08:17:52.415Z,34.08
2019-03-05T08:20:28.724Z,34.98
2019-03-05T08:23:05.803Z,40.03
2019-03-05T08:25:42.205Z,40.28
2019-03-05T08:28:19.650Z,34.65
2019-03-05T08:30:56.679Z,33.88
2019-03-05T08:33:33.791Z,34.67
2019-03-05T08:36:10.635Z,35.10
2019-03-05T08:38:47.656Z,34.40
2019-03-05T08:41:24.395Z,33.88
2019-03-05T08:44:01.543Z,39.98
2019-03-05T08:46:38.919Z,36.10
2019-03-05T08:49:17.895Z,36.60
2019-03-05T08:51:54.516Z,38.38
2019-03-05T08:54:31.965Z,43.40
2019-03-05T08:57:08.674Z,37.73
2019-03-05T08:59:45.182Z,36.83
2019-03-05T09:02:22.517Z,39.67
2019-03-05T09:04:59.911Z,40.40
2019-03-05T09:07:36.773Z,39.15
2019-03-05T09:10:17.511Z,35.28
2019-03-05T09:12:54.379Z,36.23
2019-03-05T09:15:32.121Z,40.23
2019-03-05T09:18:08.671Z,39.50
2019-03-05T09:21:01.463Z,34.63
2019-03-05T09:23:39.452Z,34.53
2019-03-05T09:26:16.483Z,41.37
2019-03-05T09:28:53.611Z,42.50
2019-03-05T09:31:30.926Z,39.23
2019-03-05T09:34:08.167Z,39.53
2019-03-05T09:36:51.024Z,38.10
2019-03-05T09:39:23.642Z,43.38
2019-03-05T09:42:01.063Z,35.23
2019-03-05T09:44:37.743Z,38.05
2019-03-05T09:47:14.452Z,34.73
2019-03-05T09:49:51.368Z,33.33
2019-03-05T09:52:28.687Z,34.43
2019-03-05T09:55:05.716Z,37.33
2019-03-05T09:57:43.716Z,39.18
2019-03-05T10:00:22.960Z,35.33
2019-03-05T10:03:00.922Z,37.10
2019-03-05T10:05:38.404Z,37.53
2019-03-05T10:08:15.748Z,35.20
2019-03-05T10:10:52.987Z,35.38
2019-03-05T10:13:30.175Z,33.28
2019-03-05T10:16:07.082Z,34.30
2019-03-05T10:18:44.665Z,33.05
2019-03-05T10:21:22.593Z,33.23
2019-03-05T10:24:09.712Z,32.90
2019-03-05T10:26:38.424Z,32.80
2019-03-05T10:29:15.456Z,37.23
2019-03-05T10:31:52.487Z,32.78
2019-03-05T10:34:29.503Z,34.05
2019-03-05T10:37:12.609Z,29.95
2019-03-05T10:39:45.349Z,30.70
2019-03-05T10:42:22.552Z,35.05
2019-03-05T10:44:59.670Z,31.62
2019-03-05T10:47:36.693Z,35.58
2019-03-05T10:50:16.597Z,30.12
2019-03-05T10:52:54.052Z,28.57
2019-03-05T10:55:31.694Z,31.90
2019-03-05T10:58:08.725Z,32.93
2019-03-05T11:00:47.860Z,28.80
2019-03-05T11:03:26.401Z,30.12
2019-03-05T11:06:03.875Z,30.85
2019-03-05T11:08:41.472Z,37.13
2019-03-05T11:11:18.680Z,28.62
2019-03-05T11:13:56.052Z,33.40
2019-03-05T11:16:33.488Z,34.30
2019-03-05T11:19:11.254Z,31.80
2019-03-05T11:21:48.158Z,34.10
2019-03-05T11:24:25.252Z,37.83
2019-03-05T11:27:02.582Z,40.70
2019-03-05T11:29:39.358Z,50.30
2019-03-05T11:32:16.072Z,42.27
2019-03-05T11:34:53.442Z,36.13
2019-03-05T11:37:30.173Z,37.80
2019-03-05T11:40:07.346Z,40.38
2019-03-05T11:42:43.933Z,39.40
2019-03-05T11:45:28.933Z,38.55
2019-03-05T11:48:06.461Z,37.65
2019-03-05T11:50:43.945Z,39.08
2019-03-05T11:53:21.899Z,40.43
2019-03-05T11:55:58.844Z,43.48
2019-03-05T11:58:36.458Z,43.95
2019-03-05T12:01:23.126Z,40.63
2019-03-05T12:04:01.957Z,40.80
2019-03-05T12:06:39.098Z,42.15
2019-03-05T12:09:16.940Z,36.80
2019-03-05T12:11:53.691Z,36.63
2019-03-05T12:14:30.533Z,39.40
2019-03-05T12:17:07.771Z,38.42
2019-03-05T12:19:44.784Z,39.27
2019-03-05T12:22:21.683Z,29.77
2019-03-05T12:25:01.708Z,29.95
2019-03-05T12:27:37.031Z,35.58
2019-03-05T12:30:16.479Z,31.57
2019-03-05T12:32:53.297Z,43.50
2019-03-05T12:35:30.927Z,33.60
2019-03-05T12:38:08.274Z,36.15
2019-03-05T12:40:45.324Z,31.57
2019-03-05T12:43:22.446Z,34.18
2019-03-05T12:46:00.065Z,28.12
2019-03-05T12:48:40.405Z,30.00
2019-03-05T12:51:15.863Z,26.35
2019-03-05T12:53:53.311Z,31.17
2019-03-05T12:56:30.930Z,34.08
2019-03-05T12:59:08.100Z,29.48
2019-03-05T13:01:45.964Z,33.00
2019-03-05T13:04:22.967Z,28.30
2019-03-05T13:07:00.394Z,26.33
2019-03-05T13:09:37.351Z,30.12
2019-03-05T13:12:14.689Z,28.07
2019-03-05T13:14:51.724Z,34.43
2019-03-05T13:17:29.140Z,26.40
2019-03-05T13:20:06.001Z,28.92
2019-03-05T13:22:45.613Z,28.17
2019-03-05T13:25:24.319Z,25.88
2019-03-05T13:28:03.972Z,29.37
2019-03-05T13:30:40.462Z,33.23
2019-03-05T13:33:18.140Z,28.75
2019-03-05T13:35:54.921Z,28.60
2019-03-05T13:38:32.390Z,32.80
2019-03-05T13:41:12.150Z,23.57
2019-03-05T13:43:47.022Z,28.57
2019-03-05T13:46:25.841Z,27.00
2019-03-05T13:53:14.737Z,26.35
2019-03-05T13:56:23.607Z,29.80
2019-03-05T13:59:36.744Z,31.68
2019-03-05T14:02:14.175Z,26.02
2019-03-05T14:05:05.549Z,28.67
2019-03-05T14:08:20.001Z,29.98
2019-03-05T14:10:57.027Z,29.42
2019-03-05T14:13:34.016Z,28.60
2019-03-05T14:16:13.620Z,29.52
2019-03-05T14:18:50.642Z,30.48
2019-03-05T14:21:27.754Z,29.02
2019-03-05T14:24:05.700Z,33.15
2019-03-05T14:26:42.983Z,27.32
2019-03-05T14:29:19.996Z,28.62
2019-03-05T14:31:57.450Z,29.65
2019-03-05T14:34:34.297Z,35.30
2019-03-05T14:37:11.770Z,31.12
2019-03-05T14:39:49.071Z,33.85
2019-03-05T14:42:26.151Z,34.00
2019-03-05T14:45:03.331Z,35.38
2019-03-05T14:47:42.150Z,33.70
2019-03-05T14:50:19.338Z,33.67
2019-03-05T14:52:56.653Z,38.58
2019-03-05T14:55:34.719Z,40.83
2019-03-05T14:58:11.649Z,37.40
2019-03-05T15:00:48.352Z,37.05
2019-03-05T15:03:24.814Z,38.02
2019-03-05T15:06:01.548Z,36.65
2019-03-05T15:08:38.590Z,37.38
2019-03-05T15:11:15.501Z,41.18
2019-03-05T15:13:52.448Z,38.10
2019-03-05T15:16:29.329Z,41.70
2019-03-05T15:19:06.782Z,35.63
2019-03-05T15:21:43.079Z,37.88
2019-03-05T15:24:20.367Z,41.30
2019-03-05T15:26:57.296Z,43.80
2019-03-05T15:29:34.389Z,51.85
2019-03-05T15:32:12.296Z,52.95
2019-03-05T15:34:48.490Z,50.98
2019-03-05T15:37:25.157Z,50.98
2019-03-05T15:40:02.947Z,49.53
2019-03-05T15:42:39.434Z,43.02
2019-03-05T15:45:18.337Z,49.15
2019-03-05T15:47:55.569Z,49.15
2019-03-05T15:50:32.599Z,48.90
2019-03-05T15:53:11.530Z,55.65
2019-03-05T15:55:48.752Z,58.02
2019-03-05T15:58:26.238Z,53.68
2019-03-05T16:01:03.680Z,62.43
2019-03-05T16:03:41.969Z,65.12
2019-03-05T16:06:19.462Z,72.42
2019-03-05T16:08:57.887Z,70.47
2019-03-05T16:11:35.434Z,74.53
2019-03-05T16:14:12.280Z,74.47
2019-03-05T16:16:51.680Z,68.12
2019-03-05T16:19:28.349Z,76.47
2019-03-05T16:22:04.921Z,73.12
2019-03-05T16:24:42.070Z,79.77
2019-03-05T16:27:18.924Z,73.60
2019-03-05T16:29:56.913Z,75.52
2019-03-05T16:32:41.317Z,76.90
2019-03-05T16:35:34.989Z,66.05
2019-03-05T16:38:28.690Z,64.22
2019-03-05T16:41:26.991Z,66.22
2019-03-05T16:44:11.351Z,61.58
2019-03-05T16:47:05.268Z,66.87
2019-03-05T16:50:03.151Z,68.65
2019-03-05T16:53:01.524Z,64.12
2019-03-05T16:55:48.854Z,60.50
2019-03-05T16:58:50.187Z,58.63
2019-03-05T17:01:43.628Z,59.40
2019-03-05T17:04:34.433Z,61.37
2019-03-05T17:07:38.592Z,68.28
2019-03-05T17:10:26.015Z,62.38
2019-03-05T17:13:03.298Z,62.58
2019-03-05T17:15:40.236Z,64.30
2019-03-05T17:18:17.046Z,65.97
2019-03-05T17:20:53.922Z,65.35
2019-03-05T17:23:30.839Z,63.87
2019-03-05T17:26:08.019Z,61.20
2019-03-05T17:28:44.842Z,65.20
2019-03-05T17:31:22.208Z,56.88
2019-03-05T17:33:58.757Z,59.03
2019-03-05T17:36:35.832Z,60.80
2019-03-05T17:39:19.558Z,62.30
2019-03-05T17:41:56.690Z,64.70
2019-03-05T17:44:34.825Z,63.33
2019-03-05T17:47:11.582Z,71.47
2019-03-05T17:49:48.628Z,65.87
2019-03-05T17:52:25.803Z,65.90
2019-03-05T17:55:02.997Z,62.35
2019-03-05T17:57:41.491Z,69.40
2019-03-05T18:00:26.772Z,60.20
2019-03-05T18:03:04.812Z,67.35
2019-03-05T18:05:42.509Z,66.17
2019-03-05T18:08:19.466Z,73.33
2019-03-05T18:10:56.379Z,80.77
2019-03-05T18:13:34.349Z,77.15
2019-03-05T18:16:11.441Z,84.67
2019-03-05T18:18:48.463Z,95.17
2019-03-05T18:21:25.413Z,102.42
2019-03-05T18:24:03.114Z,107.60
2019-03-05T18:26:40.626Z,103.97
2019-03-05T18:29:18.420Z,103.83
2019-03-05T18:31:55.708Z,101.62
2019-03-05T18:34:32.776Z,111.97
2019-03-05T18:37:09.705Z,114.67
2019-03-05T18:39:46.915Z,109.17
2019-03-05T18:42:23.653Z,105.83
2019-03-05T18:45:00.397Z,103.92
2019-03-05T18:47:38.538Z,105.52
2019-03-05T18:50:17.684Z,107.83
2019-03-05T18:52:55.533Z,112.83
2019-03-05T18:55:32.628Z,102.05
2019-03-05T18:58:09.486Z,107.50
2019-03-05T19:00:46.890Z,97.37
2019-03-05T19:03:23.725Z,95.40
2019-03-05T19:06:00.905Z,104.63
2019-03-05T19:08:37.961Z,102.90
2019-03-05T19:11:14.951Z,96.78
2019-03-05T19:13:53.986Z,93.78
2019-03-05T19:16:38.267Z,89.72
2019-03-05T19:19:15.150Z,93.80
2019-03-05T19:21:51.966Z,96.75
2019-03-05T19:24:29.435Z,89.92
2019-03-05T19:27:06.742Z,94.20
2019-03-05T19:29:43.205Z,88.92
2019-03-05T19:32:21.056Z,91.75
2019-03-05T19:34:58.281Z,86.87
2019-03-05T19:37:35.042Z,82.57
2019-03-05T19:40:13.629Z,80.75
2019-03-05T19:42:50.261Z,75.72
2019-03-05T19:45:27.257Z,73.00
2019-03-05T19:48:04.352Z,82.17
2019-03-05T19:50:41.192Z,69.82
2019-03-05T19:53:18.270Z,72.92
2019-03-05T19:55:55.132Z,68.05
2019-03-05T19:58:31.510Z,68.35
2019-03-05T20:01:24.239Z,72.65
2019-03-05T20:04:01.176Z,69.15
2019-03-05T20:06:39.018Z,70.57
2019-03-05T20:09:33.550Z,68.10
2019-03-05T20:12:10.618Z,72.30
2019-03-05T20:14:47.623Z,72.90
2019-03-05T20:17:24.330Z,66.92
2019-03-05T20:20:01.327Z,70.87
2019-03-05T20:22:38.028Z,67.12
2019-03-05T20:25:17.826Z,68.17
2019-03-05T20:27:54.970Z,65.40
2019-03-05T20:30:31.819Z,65.85
2019-03-05T20:33:08.850Z,63.00
2019-03-05T20:35:47.115Z,64.53
2019-03-05T20:38:24.301Z,65.60
2019-03-05T20:41:03.247Z,64.75
2019-03-05T20:43:40.718Z,64.87
2019-03-05T20:46:21.656Z,59.88
2019-03-05T20:48:58.788Z,56.90
2019-03-05T20:51:35.921Z,61.83
2019-03-05T20:54:12.545Z,65.37
2019-03-05T20:56:49.432Z,59.33
2019-03-05T20:59:26.305Z,58.40
2019-03-05T21:02:03.102Z,62.58
2019-03-05T21:04:40.326Z,60.35
2019-03-05T21:07:18.106Z,62.30
2019-03-05T21:09:55.517Z,61.35
2019-03-05T21:12:32.604Z,61.85
2019-03-05T21:15:09.740Z,63.83
2019-03-05T21:17:47.375Z,64.55
2019-03-05T21:20:24.998Z,61.10
2019-03-05T21:23:02.227Z,65.72
2019-03-05T21:25:39.167Z,63.60
2019-03-05T21:28:16.010Z,73.35
2019-03-05T21:30:52.951Z,61.60
2019-03-05T21:33:30.666Z,65.40
2019-03-05T21:36:07.533Z,68.55
2019-03-05T21:38:44.717Z,69.17
2019-03-05T21:41:21.887Z,64.53
2019-03-05T21:43:58.596Z,68.37
2019-03-05T21:46:37.009Z,60.88
2019-03-05T21:49:14.143Z,61.98
2019-03-05T21:51:51.111Z,68.12
2019-03-05T21:54:27.903Z,65.10
2019-03-05T21:57:05.731Z,69.00
2019-03-05T21:59:42.695Z,65.42
2019-03-05T22:02:22.193Z,64.67
2019-03-05T22:04:57.680Z,64.47
2019-03-05T22:07:34.709Z,62.33
2019-03-05T22:10:13.465Z,59.77
2019-03-05T22:12:50.303Z,65.75
2019-03-05T22:15:28.194Z,64.95
2019-03-05T22:18:05.706Z,63.25
2019-03-05T22:20:42.958Z,65.32
2019-03-05T22:23:19.649Z,70.87
2019-03-05T22:25:56.782Z,64.00
2019-03-05T22:28:33.872Z,67.65
2019-03-05T22:31:10.992Z,67.42
2019-03-05T22:33:48.253Z,68.65
2019-03-05T22:36:25.475Z,69.10
2019-03-05T22:39:02.240Z,71.40
2019-03-05T22:41:41.290Z,70.62
2019-03-05T22:44:18.186Z,73.60
2019-03-05T22:46:54.884Z,77.70
2019-03-05T22:49:31.799Z,77.03
2019-03-05T22:52:08.731Z,83.03
2019-03-05T22:54:45.384Z,79.92
2019-03-05T22:57:23.538Z,80.77
2019-03-05T23:00:00.390Z,88.60
2019-03-05T23:02:38.900Z,76.07
2019-03-05T23:05:15.908Z,71.82
2019-03-05T23:07:53.284Z,73.90
2019-03-05T23:10:31.000Z,71.20
2019-03-05T23:13:07.730Z,71.50
2019-03-05T23:15:44.919Z,77.47
2019-03-05T23:18:22.426Z,81.25
2019-03-05T23:20:59.914Z,82.67
2019-03-05T23:23:36.879Z,77.70
2019-03-05T23:26:14.265Z,78.28
2019-03-05T23:28:51.777Z,81.70
2019-03-05T23:31:28.581Z,80.17
2019-03-05T23:34:05.590Z,79.25
2019-03-05T23:36:42.050Z,80.83
2019-03-05T23:39:21.880Z,81.78
2019-03-05T23:41:58.494Z,80.72
2019-03-05T23:44:35.475Z,89.92
2019-03-05T23:47:13.185Z,85.25
2019-03-05T23:49:50.430Z,81.05
2019-03-05T23:52:28.187Z,83.45
2019-03-05T23:55:05.493Z,88.17
2019-03-05T23:57:42.237Z,83.70
